KSVE/SVE METAR and TAF weather

Enter ICAO airport designator
Station Type Date Time Source
KSVE METAR 2019/04/19 08:15 UTC NOAA

KSVE 190815Z AUTO 27005KT 10SM CLR 08/03 A3017 RMK AO2


Station Type Date Time Source
KSVE Decoded METAR 2019/04/19 08:15 UTC NOAA

Susanville Municipal, CA, United States (KSVE) 40-23N 120-34W
Apr 19, 2019 - 04:15 AM EDT / 2019.04.19 0815 UTC
Wind: from the W (270 degrees) at 6 MPH (5 KT):0
Visibility: 10 mile(s):0
Sky conditions: clear
Temperature: 46 F (8 C)
Dew Point: 37 F (3 C)
Relative Humidity: 70%
Pressure (altimeter): 30.17 in. Hg (1021 hPa)
ob: KSVE 190815Z AUTO 27005KT 10SM CLR 08/03 A3017 RMK AO2
cycle: 8

Station Type Date Time Source
KSVE TAF UTC NOAA

Error!

Example: see airport list